createdAt,value
2023-04-19T00:04:09.842Z,2.22
2023-04-19T00:14:22.723Z,2.33
2023-04-19T00:19:30.396Z,2.30
2023-04-19T00:24:36.582Z,2.20
2023-04-19T00:29:44.776Z,2.20
2023-04-19T00:34:52.571Z,2.23
2023-04-19T00:39:58.757Z,2.40
2023-04-19T00:45:06.566Z,2.80
2023-04-19T00:50:15.275Z,3.65
2023-04-19T00:55:21.851Z,2.65
2023-04-19T01:00:29.954Z,2.50
2023-04-19T01:05:38.291Z,2.47
2023-04-19T01:10:44.709Z,2.73
2023-04-19T01:15:51.944Z,3.88
2023-04-19T01:26:09.197Z,3.75
2023-04-19T01:31:15.726Z,2.90
2023-04-19T01:36:22.170Z,3.75
2023-04-19T01:41:32.252Z,3.05
2023-04-19T01:46:39.274Z,2.70
2023-04-19T01:51:45.951Z,3.25
2023-04-19T01:56:53.915Z,3.30
2023-04-19T02:02:00.399Z,3.28
2023-04-19T02:07:06.900Z,2.97
2023-04-19T02:12:14.768Z,2.58
2023-04-19T02:17:23.676Z,3.67
2023-04-19T02:22:31.202Z,3.28
2023-04-19T02:27:39.142Z,3.10
2023-04-19T02:32:45.390Z,2.65
2023-04-19T02:37:51.639Z,3.20
2023-04-19T02:42:59.853Z,2.88
2023-04-19T02:48:06.966Z,3.00
2023-04-19T02:53:13.301Z,2.88
2023-04-19T02:58:22.311Z,2.88
2023-04-19T03:03:43.110Z,3.08
2023-04-19T03:08:50.006Z,2.72
2023-04-19T03:13:59.435Z,3.50
2023-04-19T03:19:06.236Z,2.95
2023-04-19T03:24:20.838Z,3.10
2023-04-19T03:29:32.552Z,3.13
2023-04-19T03:34:48.678Z,2.85
2023-04-19T03:39:56.242Z,2.65
2023-04-19T03:45:12.494Z,3.15
2023-04-19T03:50:24.227Z,2.78
2023-04-19T03:55:33.674Z,3.28
2023-04-19T04:00:42.575Z,2.95
2023-04-19T04:05:49.052Z,2.80
2023-04-19T04:10:56.926Z,3.15
2023-04-19T04:16:05.362Z,2.85
2023-04-19T04:21:13.713Z,3.05
2023-04-19T04:31:38.644Z,3.00
2023-04-19T04:36:45.021Z,2.93
2023-04-19T04:41:52.286Z,3.28
2023-04-19T04:47:01.184Z,3.47
2023-04-19T04:52:13.847Z,3.45
2023-04-19T04:57:33.252Z,3.13
2023-04-19T05:02:42.976Z,2.88
2023-04-19T05:07:51.227Z,4.00
2023-04-19T05:12:57.914Z,3.50
2023-04-19T05:18:07.680Z,3.80
2023-04-19T05:23:16.168Z,3.58
2023-04-19T05:28:23.516Z,3.45
2023-04-19T05:33:41.947Z,3.10
2023-04-19T05:38:49.705Z,3.60
2023-04-19T05:43:56.661Z,3.22
2023-04-19T05:49:07.009Z,2.72
2023-04-19T05:54:36.472Z,3.58
2023-04-19T05:59:44.804Z,3.08
2023-04-19T06:10:03.450Z,3.03
2023-04-19T06:15:12.143Z,4.25
2023-04-19T06:25:27.047Z,3.65
2023-04-19T06:30:33.400Z,5.10
2023-04-19T06:35:41.312Z,4.57
2023-04-19T06:40:47.549Z,5.13
2023-04-19T06:46:00.820Z,5.03
2023-04-19T06:51:08.738Z,4.35
2023-04-19T06:56:15.340Z,4.82
2023-04-19T07:01:21.651Z,4.55
2023-04-19T07:06:30.017Z,4.32
2023-04-19T07:11:36.914Z,4.60
2023-04-19T07:16:44.465Z,4.38
2023-04-19T07:21:53.047Z,4.80
2023-04-19T07:26:59.542Z,4.63
2023-04-19T07:32:06.739Z,4.78
2023-04-19T07:37:14.769Z,5.63
2023-04-19T07:42:24.249Z,5.05
2023-04-19T07:47:31.663Z,4.53
2023-04-19T07:52:39.323Z,4.68
2023-04-19T07:57:48.628Z,5.35
2023-04-19T08:02:55.195Z,5.80
2023-04-19T08:08:03.244Z,5.82
2023-04-19T08:13:09.629Z,5.85
2023-04-19T08:18:16.243Z,5.88
2023-04-19T08:23:29.755Z,6.35
2023-04-19T08:28:44.267Z,5.63
2023-04-19T08:33:50.693Z,5.95
2023-04-19T08:39:06.630Z,6.90
2023-04-19T08:44:36.081Z,6.72
2023-04-19T08:49:43.937Z,6.45
2023-04-19T08:54:52.810Z,8.95
2023-04-19T08:59:59.420Z,9.90
2023-04-19T09:05:08.006Z,9.60
2023-04-19T09:10:18.127Z,7.47
2023-04-19T09:15:40.083Z,5.82
2023-04-19T09:20:48.167Z,8.50
2023-04-19T09:26:22.181Z,7.13
2023-04-19T09:31:43.276Z,6.22
2023-04-19T09:37:04.364Z,7.88
2023-04-19T09:42:36.025Z,4.78
2023-04-19T09:47:46.978Z,4.28
2023-04-19T09:52:54.465Z,4.95
2023-04-19T09:58:02.138Z,4.28
2023-04-19T10:03:11.116Z,4.63
2023-04-19T10:08:19.038Z,4.60
2023-04-19T10:13:27.781Z,5.25
2023-04-19T10:18:35.730Z,4.88
2023-04-19T10:23:42.388Z,4.95
2023-04-19T10:28:50.870Z,3.92
2023-04-19T10:33:58.010Z,3.80
2023-04-19T10:39:05.325Z,4.40
2023-04-19T10:44:14.175Z,4.35
2023-04-19T10:49:25.014Z,4.20
2023-04-19T10:54:33.662Z,4.32
2023-04-19T10:59:44.671Z,3.97
2023-04-19T11:05:14.289Z,4.50
2023-04-19T11:10:32.081Z,4.32
2023-04-19T11:15:45.704Z,4.13
2023-04-19T11:20:56.127Z,4.65
2023-04-19T11:26:02.559Z,4.95
2023-04-19T11:31:10.437Z,5.40
2023-04-19T11:36:17.016Z,5.45
2023-04-19T11:41:23.560Z,6.85
2023-04-19T11:46:31.385Z,5.13
2023-04-19T11:51:37.822Z,5.75
2023-04-19T11:57:04.075Z,5.30
2023-04-19T12:02:14.356Z,4.95
2023-04-19T12:07:20.847Z,4.70
2023-04-19T12:12:44.603Z,4.78
2023-04-19T12:18:03.998Z,4.60
2023-04-19T12:23:11.553Z,4.32
2023-04-19T12:28:18.597Z,4.72
2023-04-19T12:33:26.819Z,4.88
2023-04-19T12:38:33.447Z,5.30
2023-04-19T12:43:39.923Z,4.38
2023-04-19T12:48:47.847Z,4.15
2023-04-19T12:53:55.966Z,4.80
2023-04-19T12:59:02.373Z,4.07
2023-04-19T13:04:12.212Z,4.10
2023-04-19T13:09:18.790Z,4.80
2023-04-19T13:14:25.324Z,4.45
2023-04-19T13:19:33.394Z,5.38
2023-04-19T13:24:40.239Z,5.30
2023-04-19T13:29:47.281Z,4.15
2023-04-19T13:34:55.206Z,4.50
2023-04-19T13:40:14.868Z,4.55
2023-04-19T13:45:26.125Z,4.20
2023-04-19T13:50:33.842Z,5.20
2023-04-19T13:55:40.274Z,4.55
2023-04-19T14:00:48.581Z,3.55
2023-04-19T14:05:57.045Z,3.80
2023-04-19T14:11:03.449Z,3.47
2023-04-19T14:16:11.494Z,3.97
2023-04-19T14:21:19.653Z,4.50
2023-04-19T14:26:27.509Z,3.92
2023-04-19T14:31:34.747Z,3.47
2023-04-19T14:36:43.159Z,3.63
2023-04-19T14:41:49.660Z,3.42
2023-04-19T14:46:56.311Z,3.92
2023-04-19T14:52:05.343Z,4.18
2023-04-19T14:57:12.380Z,5.88
2023-04-19T15:02:18.952Z,5.10
2023-04-19T15:07:27.060Z,5.55
2023-04-19T15:12:33.498Z,5.33
2023-04-19T15:17:40.273Z,4.10
2023-04-19T15:22:48.433Z,4.28
2023-04-19T15:27:54.778Z,4.90
2023-04-19T15:33:01.758Z,4.15
2023-04-19T15:38:09.560Z,3.70
2023-04-19T15:43:15.708Z,4.78
2023-04-19T15:48:22.550Z,4.35
2023-04-19T15:53:30.723Z,5.07
2023-04-19T15:58:37.168Z,4.47
2023-04-19T16:03:44.126Z,5.10
2023-04-19T16:08:52.494Z,5.10
2023-04-19T16:13:58.913Z,4.53
2023-04-19T16:19:06.723Z,2.92
2023-04-19T16:24:22.044Z,2.80
2023-04-19T16:29:34.675Z,3.97
2023-04-19T16:34:46.155Z,2.25
2023-04-19T16:39:54.403Z,1.80
2023-04-19T16:45:01.569Z,2.00
2023-04-19T16:50:10.691Z,3.20
2023-04-19T16:55:19.133Z,2.65
2023-04-19T17:00:26.614Z,4.38
2023-04-19T17:05:33.679Z,4.88
2023-04-19T17:10:41.767Z,6.10
2023-04-19T17:15:48.743Z,5.73
2023-04-19T17:20:56.612Z,5.15
2023-04-19T17:26:05.950Z,9.10
2023-04-19T17:31:14.288Z,8.50
2023-04-19T17:36:21.328Z,6.82
2023-04-19T17:41:29.947Z,6.07
2023-04-19T17:46:38.027Z,4.47
2023-04-19T17:51:46.810Z,5.32
2023-04-19T17:57:00.191Z,5.95
2023-04-19T18:02:10.235Z,5.80
2023-04-19T18:07:19.060Z,5.93
2023-04-19T18:12:31.327Z,6.28
2023-04-19T18:17:41.988Z,7.65
2023-04-19T18:22:54.976Z,8.35
2023-04-19T18:28:06.267Z,8.73
2023-04-19T18:33:14.465Z,9.50
2023-04-19T18:38:24.112Z,7.28
2023-04-19T18:43:36.141Z,10.18
2023-04-19T18:48:48.348Z,9.63
2023-04-19T18:53:57.708Z,8.98
2023-04-19T18:59:09.728Z,7.85
2023-04-19T19:04:46.776Z,6.78
2023-04-19T19:09:57.821Z,6.28
2023-04-19T19:15:16.486Z,6.53
2023-04-19T19:20:25.595Z,7.60
2023-04-19T19:25:35.180Z,7.63
2023-04-19T19:35:55.306Z,8.07
2023-04-19T19:46:17.681Z,7.35
2023-04-19T19:51:44.119Z,8.00
2023-04-19T20:02:08.562Z,7.88
2023-04-19T20:12:28.125Z,7.60
2023-04-19T20:17:37.985Z,7.78
2023-04-19T20:22:53.080Z,7.50
2023-04-19T20:28:02.499Z,6.97
2023-04-19T20:33:12.823Z,7.25
2023-04-19T20:38:24.441Z,8.43
2023-04-19T20:43:35.555Z,7.55
2023-04-19T20:48:46.010Z,7.53
2023-04-19T20:53:54.744Z,7.35
2023-04-19T20:59:02.365Z,7.37
2023-04-19T21:04:10.471Z,6.95
2023-04-19T21:09:17.397Z,6.63
2023-04-19T21:14:24.285Z,6.95
2023-04-19T21:19:32.709Z,6.05
2023-04-19T21:24:39.447Z,7.22
2023-04-19T21:29:45.986Z,7.15
2023-04-19T21:34:54.198Z,6.88
2023-04-19T21:40:00.730Z,7.50
2023-04-19T21:45:08.687Z,7.55
2023-04-19T21:50:16.714Z,7.70
2023-04-19T21:55:23.698Z,7.33
2023-04-19T22:00:30.691Z,8.02
2023-04-19T22:05:41.410Z,7.90
2023-04-19T22:10:47.621Z,7.40
2023-04-19T22:15:55.491Z,7.18
2023-04-19T22:21:03.740Z,6.87
2023-04-19T22:26:10.100Z,7.05
2023-04-19T22:31:16.552Z,8.63
2023-04-19T22:36:24.185Z,8.30
2023-04-19T22:41:30.460Z,8.82
2023-04-19T22:46:37.787Z,9.45
2023-04-19T22:51:46.257Z,8.95
2023-04-19T22:56:52.696Z,8.40
2023-04-19T23:01:59.146Z,8.00
2023-04-19T23:07:07.385Z,8.02
2023-04-19T23:12:16.118Z,7.87
2023-04-19T23:17:22.530Z,7.72
2023-04-19T23:22:30.382Z,6.97
2023-04-19T23:27:37.541Z,7.50
2023-04-19T23:32:44.036Z,7.05
2023-04-19T23:37:51.797Z,7.25
2023-04-19T23:42:58.341Z,6.82
2023-04-19T23:48:04.780Z,6.80
2023-04-19T23:53:12.564Z,6.70
2023-04-19T23:58:19.336Z,6.90
